臺北終端管制區 - 桃園北區雷達席

METAR RCTP 201900Z 05014KT 9999 FEW015 BKN030 22/17 Q1014 NOSIG RMK A2996=

站台狀態:Offline
最後更新:2019-10-21 03:15:01